createdAt,value
2022-08-02T00:02:21.683Z,98406.44
2022-08-02T00:04:48.170Z,98398.88
2022-08-02T00:07:15.840Z,98399.88
2022-08-02T00:09:42.718Z,98398.34
2022-08-02T00:12:10.376Z,98403.66
2022-08-02T00:14:37.994Z,98399.53
2022-08-02T00:17:05.996Z,98398.88
2022-08-02T00:19:32.522Z,98398.19
2022-08-02T00:21:59.118Z,98393.06
2022-08-02T00:24:30.549Z,98395.69
2022-08-02T00:26:57.665Z,98400.34
2022-08-02T00:29:24.127Z,98404.22
2022-08-02T00:31:50.605Z,98411.94
2022-08-02T00:34:28.432Z,98410.44
2022-08-02T00:36:56.640Z,98412.94
2022-08-02T00:39:33.473Z,98412.22
2022-08-02T00:42:02.047Z,98409.19
2022-08-02T00:44:28.470Z,98401.44
2022-08-02T00:46:54.924Z,98396.41
2022-08-02T00:49:21.557Z,98399.94
2022-08-02T00:51:48.302Z,98397.50
2022-08-02T00:54:14.853Z,98396.16
2022-08-02T00:56:50.078Z,98399.75
2022-08-02T00:59:18.393Z,98398.09
2022-08-02T01:01:57.327Z,98405.16
2022-08-02T01:04:32.384Z,98406.09
2022-08-02T01:07:13.347Z,98413.31
2022-08-02T01:09:44.835Z,98411.03
2022-08-02T01:12:12.874Z,98412.81
2022-08-02T01:14:46.062Z,98414.72
2022-08-02T01:17:20.650Z,98417.34
2022-08-02T01:19:56.255Z,98422.47
2022-08-02T01:23:02.163Z,98418.25
2022-08-02T01:25:56.161Z,98424.31
2022-08-02T01:28:36.420Z,98421.63
2022-08-02T01:31:12.968Z,98421.81
2022-08-02T01:33:51.787Z,98431.69
2022-08-02T01:36:20.563Z,98422.28
2022-08-02T01:38:50.306Z,98425.81
2022-08-02T01:41:20.176Z,98429.03
2022-08-02T01:43:49.580Z,98425.16
2022-08-02T01:46:17.780Z,98432.97
2022-08-02T01:48:47.531Z,98429.84
2022-08-02T01:51:18.878Z,98431.84
2022-08-02T01:53:48.542Z,98433.63
2022-08-02T01:56:16.297Z,98438.00
2022-08-02T01:58:44.122Z,98435.47
2022-08-02T02:01:15.111Z,98438.81
2022-08-02T02:03:47.489Z,98437.03
2022-08-02T02:06:16.067Z,98438.00
2022-08-02T02:08:44.286Z,98443.31
2022-08-02T02:12:14.112Z,98446.09
2022-08-02T02:14:00.736Z,98447.13
2022-08-02T02:16:28.695Z,98447.47
2022-08-02T02:18:55.497Z,98444.13
2022-08-02T02:21:22.214Z,98449.34
2022-08-02T02:23:50.880Z,98452.69
2022-08-02T02:26:29.385Z,98449.34
2022-08-02T02:29:01.981Z,98442.69
2022-08-02T02:31:34.656Z,98441.94
2022-08-02T02:34:17.841Z,98443.06
2022-08-02T02:36:51.539Z,98437.09
2022-08-02T02:39:22.034Z,98447.56
2022-08-02T02:41:51.415Z,98446.81
2022-08-02T02:44:20.611Z,98441.78
2022-08-02T02:46:50.484Z,98438.47
2022-08-02T02:49:19.145Z,98434.38
2022-08-02T02:51:46.185Z,98438.63
2022-08-02T02:54:32.253Z,98437.78
2022-08-02T02:57:01.263Z,98431.13
2022-08-02T02:59:28.675Z,98428.69
2022-08-02T03:01:57.871Z,98434.72
2022-08-02T03:04:27.984Z,98428.84
2022-08-02T03:07:14.504Z,98429.84
2022-08-02T03:09:41.003Z,98425.63
2022-08-02T03:12:10.163Z,98427.38
2022-08-02T03:14:42.703Z,98423.09
2022-08-02T03:17:09.188Z,98425.63
2022-08-02T03:19:35.707Z,98428.38
2022-08-02T03:22:02.171Z,98424.94
2022-08-02T03:24:28.684Z,98425.09
2022-08-02T03:26:55.738Z,98435.66
2022-08-02T03:29:22.304Z,98435.56
2022-08-02T03:31:49.088Z,98430.28
2022-08-02T03:34:15.870Z,98429.59
2022-08-02T03:36:43.414Z,98439.22
2022-08-02T03:39:12.608Z,98434.78
2022-08-02T03:41:39.797Z,98433.13
2022-08-02T03:44:07.918Z,98436.47
2022-08-02T03:46:35.042Z,98434.50
2022-08-02T03:49:02.546Z,98440.69
2022-08-02T03:51:29.466Z,98432.09
2022-08-02T03:53:56.715Z,98439.88
2022-08-02T03:56:23.675Z,98435.50
2022-08-02T03:58:50.291Z,98444.91
2022-08-02T04:01:17.016Z,98450.72
2022-08-02T04:03:43.856Z,98452.47
2022-08-02T04:06:10.424Z,98451.50
2022-08-02T04:08:38.724Z,98463.56
2022-08-02T04:11:25.366Z,98464.63
2022-08-02T04:13:52.362Z,98469.75
2022-08-02T04:16:32.126Z,98477.34
2022-08-02T04:19:02.703Z,98477.63
2022-08-02T04:21:48.432Z,98477.50
2022-08-02T04:24:24.550Z,98478.78
2022-08-02T04:26:53.956Z,98475.69
2022-08-02T04:29:21.260Z,98487.94
2022-08-02T04:31:48.910Z,98486.03
2022-08-02T04:34:15.834Z,98484.50
2022-08-02T04:36:43.449Z,98488.09
2022-08-02T04:39:10.506Z,98490.00
2022-08-02T04:41:44.183Z,98492.09
2022-08-02T04:44:12.013Z,98498.31
2022-08-02T04:46:39.471Z,98488.59
2022-08-02T04:49:06.142Z,98494.44
2022-08-02T04:51:43.221Z,98499.13
2022-08-02T04:54:11.827Z,98499.63
2022-08-02T04:56:39.396Z,98497.19
2022-08-02T04:59:06.488Z,98490.13
2022-08-02T05:01:33.244Z,98484.03
2022-08-02T05:03:59.723Z,98488.75
2022-08-02T05:06:26.428Z,98487.50
2022-08-02T05:08:53.744Z,98492.34
2022-08-02T05:11:22.053Z,98496.03
2022-08-02T05:13:58.052Z,98499.69
2022-08-02T05:16:31.071Z,98504.53
2022-08-02T05:18:59.557Z,98501.09
2022-08-02T05:21:26.098Z,98506.03
2022-08-02T05:23:52.589Z,98505.06
2022-08-02T05:26:19.166Z,98502.69
2022-08-02T05:28:45.607Z,98503.09
2022-08-02T05:31:13.141Z,98504.78
2022-08-02T05:33:39.765Z,98500.44
2022-08-02T05:36:06.708Z,98514.97
2022-08-02T05:38:36.843Z,98514.44
2022-08-02T05:41:03.967Z,98514.66
2022-08-02T05:43:30.452Z,98506.16
2022-08-02T05:45:56.942Z,98504.88
2022-08-02T05:48:27.640Z,98509.78
2022-08-02T05:51:03.292Z,98517.78
2022-08-02T05:53:44.666Z,98516.63
2022-08-02T05:56:18.550Z,98516.56
2022-08-02T05:59:31.896Z,98517.56
2022-08-02T06:02:03.437Z,98523.63
2022-08-02T06:04:47.296Z,98516.03
2022-08-02T06:07:14.598Z,98516.19
2022-08-02T06:09:43.175Z,98518.59
2022-08-02T06:12:14.054Z,98516.97
2022-08-02T06:14:41.854Z,98503.19
2022-08-02T06:17:08.624Z,98510.69
2022-08-02T06:19:51.740Z,98515.69
2022-08-02T06:22:31.972Z,98516.91
2022-08-02T06:25:04.259Z,98526.53
2022-08-02T06:27:31.701Z,98528.91
2022-08-02T06:29:58.433Z,98526.91
2022-08-02T06:32:27.476Z,98521.66
2022-08-02T06:34:54.088Z,98536.84
2022-08-02T06:37:35.604Z,98531.78
2022-08-02T06:40:08.515Z,98529.47
2022-08-02T06:42:51.607Z,98538.34
2022-08-02T06:45:18.639Z,98527.66
2022-08-02T06:47:45.617Z,98530.72
2022-08-02T06:50:12.145Z,98529.47
2022-08-02T06:52:39.133Z,98533.22
2022-08-02T06:55:06.267Z,98533.53
2022-08-02T06:57:33.657Z,98532.84
2022-08-02T07:00:04.620Z,98532.06
2022-08-02T07:02:31.568Z,98538.84
2022-08-02T07:04:58.312Z,98532.88
2022-08-02T07:07:24.952Z,98521.81
2022-08-02T07:10:00.089Z,98526.97
2022-08-02T07:12:30.388Z,98514.72
2022-08-02T07:14:58.098Z,98514.47
2022-08-02T07:17:24.647Z,98518.88
2022-08-02T07:19:51.075Z,98521.59
2022-08-02T07:22:19.346Z,98519.13
2022-08-02T07:24:45.808Z,98524.78
2022-08-02T07:27:13.022Z,98517.00
2022-08-02T07:29:45.987Z,98517.16
2022-08-02T07:32:18.674Z,98509.53
2022-08-02T07:34:50.826Z,98517.47
2022-08-02T07:37:53.052Z,98521.34
2022-08-02T07:40:13.530Z,98515.84
2022-08-02T07:42:41.174Z,98523.91
2022-08-02T07:45:08.171Z,98518.84
2022-08-02T07:47:38.939Z,98508.63
2022-08-02T07:50:06.380Z,98513.06
2022-08-02T07:52:33.084Z,98511.97
2022-08-02T07:54:59.550Z,98517.81
2022-08-02T07:57:26.059Z,98509.06
2022-08-02T07:59:52.568Z,98527.88
2022-08-02T08:02:19.180Z,98531.56
2022-08-02T08:04:45.661Z,98529.59
2022-08-02T08:07:12.166Z,98532.03
2022-08-02T08:09:42.205Z,98527.25
2022-08-02T08:12:09.451Z,98525.59
2022-08-02T08:14:37.104Z,98516.16
2022-08-02T08:17:03.987Z,98515.41
2022-08-02T08:19:34.909Z,98518.06
2022-08-02T08:22:16.897Z,98524.94
2022-08-02T08:24:43.454Z,98526.75
2022-08-02T08:27:14.593Z,98529.16
2022-08-02T08:29:44.934Z,98530.22
2022-08-02T08:32:17.658Z,98531.81
2022-08-02T08:34:48.543Z,98530.66
2022-08-02T08:37:17.137Z,98539.50
2022-08-02T08:39:58.325Z,98540.00
2022-08-02T08:42:30.948Z,98536.25
2022-08-02T08:44:58.507Z,98532.47
2022-08-02T08:47:34.946Z,98527.56
2022-08-02T08:50:05.126Z,98526.44
2022-08-02T08:52:40.138Z,98511.44
2022-08-02T08:55:09.827Z,98522.75
2022-08-02T08:57:41.313Z,98526.59
2022-08-02T09:00:09.491Z,98531.28
2022-08-02T09:02:36.729Z,98534.22
2022-08-02T09:05:20.192Z,98538.56
2022-08-02T09:07:57.763Z,98541.50
2022-08-02T09:10:44.280Z,98538.44
2022-08-02T09:13:38.866Z,98533.75
2022-08-02T09:16:12.121Z,98541.50
2022-08-02T09:18:46.362Z,98533.47
2022-08-02T09:21:15.856Z,98536.97
2022-08-02T09:23:49.144Z,98540.38
2022-08-02T09:26:18.926Z,98534.41
2022-08-02T09:28:48.554Z,98525.84
2022-08-02T09:31:18.346Z,98530.94
2022-08-02T09:33:51.707Z,98521.69
2022-08-02T09:36:18.264Z,98514.41
2022-08-02T09:39:02.150Z,98516.53
2022-08-02T09:41:30.816Z,98522.25
2022-08-02T09:44:05.243Z,98525.47
2022-08-02T09:46:40.644Z,98523.63
2022-08-02T09:49:09.177Z,98509.66
2022-08-02T09:51:39.425Z,98499.91
2022-08-02T09:54:09.729Z,98496.56
2022-08-02T09:56:43.652Z,98498.84
2022-08-02T09:59:11.163Z,98503.63
2022-08-02T10:01:39.103Z,98501.53
2022-08-02T10:04:15.744Z,98495.50
2022-08-02T10:06:49.785Z,98484.97
2022-08-02T10:09:17.035Z,98485.50
2022-08-02T10:11:43.828Z,98493.53
2022-08-02T10:14:11.877Z,98491.72
2022-08-02T10:16:41.079Z,98491.88
2022-08-02T10:19:08.252Z,98494.91
2022-08-02T10:21:46.949Z,98497.88
2022-08-02T10:24:15.925Z,98485.38
2022-08-02T10:26:44.877Z,98487.81
2022-08-02T10:29:18.419Z,98489.31
2022-08-02T10:31:59.149Z,98484.34
2022-08-02T10:34:32.183Z,98488.22
2022-08-02T10:37:02.875Z,98488.38
2022-08-02T10:39:38.816Z,98481.81
2022-08-02T10:42:05.548Z,98486.44
2022-08-02T10:44:33.271Z,98480.41
2022-08-02T10:47:15.394Z,98467.50
2022-08-02T10:49:55.631Z,98463.31
2022-08-02T10:52:23.633Z,98461.94
2022-08-02T10:55:00.149Z,98460.25
2022-08-02T10:57:31.771Z,98466.63
2022-08-02T11:00:01.695Z,98465.53
2022-08-02T11:02:39.480Z,98457.06
2022-08-02T11:05:08.587Z,98456.03
2022-08-02T11:07:49.911Z,98453.91
2022-08-02T11:10:34.225Z,98450.72
2022-08-02T11:13:10.572Z,98444.91
2022-08-02T11:15:57.324Z,98431.56
2022-08-02T11:18:43.744Z,98437.75
2022-08-02T11:21:25.012Z,98435.22
2022-08-02T11:23:52.818Z,98439.31
2022-08-02T11:26:31.495Z,98439.00
2022-08-02T11:29:03.313Z,98433.72
2022-08-02T11:31:38.143Z,98438.50
2022-08-02T11:34:09.273Z,98428.91
2022-08-02T11:36:47.763Z,98437.72
2022-08-02T11:39:20.038Z,98431.25
2022-08-02T11:41:56.976Z,98424.22
2022-08-02T11:44:27.139Z,98416.59
2022-08-02T11:46:58.440Z,98420.53
2022-08-02T11:49:25.361Z,98418.25
2022-08-02T11:52:00.447Z,98412.91
2022-08-02T11:54:32.446Z,98411.41
2022-08-02T12:00:46.993Z,98401.97
2022-08-02T12:03:17.878Z,98397.66
2022-08-02T12:06:04.867Z,98395.69
2022-08-02T12:08:33.684Z,98405.44
2022-08-02T12:11:02.692Z,98398.41
2022-08-02T12:13:42.413Z,98396.84
2022-08-02T12:16:32.256Z,98384.88
2022-08-02T12:19:17.634Z,98388.75
2022-08-02T12:21:44.134Z,98397.81
2022-08-02T12:24:11.855Z,98397.88
2022-08-02T12:26:45.765Z,98392.16
2022-08-02T12:29:12.708Z,98390.16
2022-08-02T12:31:56.075Z,98387.13
2022-08-02T12:34:32.086Z,98392.41
2022-08-02T12:37:10.565Z,98377.84
2022-08-02T12:39:40.199Z,98382.34
2022-08-02T12:42:10.270Z,98381.50
2022-08-02T12:44:49.304Z,98381.94
2022-08-02T12:47:15.774Z,98372.44
2022-08-02T12:49:42.302Z,98378.72
2022-08-02T12:52:23.002Z,98370.38
2022-08-02T12:54:49.823Z,98367.28
2022-08-02T12:57:18.865Z,98373.50
2022-08-02T12:59:54.002Z,98367.81
2022-08-02T13:02:21.512Z,98369.03
2022-08-02T13:04:49.836Z,98366.50
2022-08-02T13:07:17.893Z,98369.75
2022-08-02T13:09:48.433Z,98370.88
2022-08-02T13:12:15.573Z,98367.34
2022-08-02T13:14:42.882Z,98364.88
2022-08-02T13:17:12.626Z,98362.66
2022-08-02T13:19:39.280Z,98362.16
2022-08-02T13:22:06.392Z,98369.88
2022-08-02T13:24:41.269Z,98352.19
2022-08-02T13:27:22.100Z,98355.25
2022-08-02T13:29:49.903Z,98354.50
2022-08-02T13:32:17.050Z,98356.22
2022-08-02T13:34:43.847Z,98359.69
2022-08-02T13:37:10.512Z,98354.53
2022-08-02T13:39:37.058Z,98356.31
2022-08-02T13:42:03.750Z,98347.13
2022-08-02T13:44:32.718Z,98343.22
2022-08-02T13:46:59.242Z,98341.81
2022-08-02T13:49:51.348Z,98342.66
2022-08-02T13:52:12.946Z,98333.16
2022-08-02T13:54:39.595Z,98332.03
2022-08-02T13:57:06.163Z,98333.81
2022-08-02T13:59:55.798Z,98338.59
2022-08-02T14:02:19.151Z,98324.31
2022-08-02T14:04:46.006Z,98325.00
2022-08-02T14:07:12.922Z,98322.63
2022-08-02T14:09:40.465Z,98324.59
2022-08-02T14:12:09.689Z,98331.63
2022-08-02T14:14:36.339Z,98317.66
2022-08-02T14:17:02.804Z,98323.34
2022-08-02T14:19:29.283Z,98319.84
2022-08-02T14:22:10.454Z,98318.66
2022-08-02T14:24:39.577Z,98309.38
2022-08-02T14:27:06.069Z,98315.22
2022-08-02T14:29:32.545Z,98314.03
2022-08-02T14:31:59.072Z,98314.88
2022-08-02T14:34:25.927Z,98311.34
2022-08-02T14:36:54.075Z,98308.72
2022-08-02T14:39:21.025Z,98308.44
2022-08-02T14:41:58.989Z,98304.56
2022-08-02T14:44:26.854Z,98307.13
2022-08-02T14:46:53.475Z,98302.16
2022-08-02T14:49:24.785Z,98304.34
2022-08-02T14:51:55.525Z,98303.00
2022-08-02T14:54:28.252Z,98304.50
2022-08-02T14:57:03.303Z,98301.84
2022-08-02T14:59:30.168Z,98298.50
2022-08-02T15:01:57.834Z,98292.16
2022-08-02T15:04:24.823Z,98291.34
2022-08-02T15:06:52.037Z,98292.16
2022-08-02T15:09:19.293Z,98287.19
2022-08-02T15:11:48.192Z,98296.19
2022-08-02T15:14:22.195Z,98294.38
2022-08-02T15:16:58.035Z,98285.38
2022-08-02T15:19:29.469Z,98293.00
2022-08-02T15:22:16.998Z,98299.19
2022-08-02T15:24:45.455Z,98290.19
2022-08-02T15:27:14.401Z,98291.16
2022-08-02T15:29:42.212Z,98291.16
2022-08-02T15:32:09.101Z,98291.81
2022-08-02T15:34:35.795Z,98287.13
2022-08-02T15:37:02.592Z,98287.81
2022-08-02T15:39:29.299Z,98280.81
2022-08-02T15:41:56.479Z,98289.19
2022-08-02T15:44:23.137Z,98288.22
2022-08-02T15:46:51.751Z,98290.88
2022-08-02T15:49:20.429Z,98278.28
2022-08-02T15:51:46.963Z,98282.59
2022-08-02T15:54:13.467Z,98284.22
2022-08-02T15:56:39.949Z,98284.75
2022-08-02T15:59:06.978Z,98284.75
2022-08-02T16:01:37.642Z,98283.25
2022-08-02T16:04:07.124Z,98272.63
2022-08-02T16:06:35.004Z,98278.28
2022-08-02T16:09:02.236Z,98278.91
2022-08-02T16:11:28.763Z,98286.59
2022-08-02T16:13:55.462Z,98280.06
2022-08-02T16:16:27.758Z,98276.59
2022-08-02T16:18:54.470Z,98279.59
2022-08-02T16:21:22.906Z,98284.44
2022-08-02T16:24:01.622Z,98283.25
2022-08-02T16:26:34.150Z,98283.94
2022-08-02T16:29:03.058Z,98280.25
2022-08-02T16:31:29.797Z,98281.91
2022-08-02T16:33:57.054Z,98277.94
2022-08-02T16:36:25.419Z,98281.75
2022-08-02T16:38:53.947Z,98269.78
2022-08-02T16:41:20.763Z,98280.94
2022-08-02T16:43:47.634Z,98278.44
2022-08-02T16:46:14.524Z,98273.66
2022-08-02T16:48:42.018Z,98270.84
2022-08-02T16:51:18.741Z,98267.66
2022-08-02T16:53:59.130Z,98274.63
2022-08-02T16:56:27.577Z,98274.97
2022-08-02T16:58:54.063Z,98267.00
2022-08-02T17:01:27.173Z,98271.63
2022-08-02T17:03:56.858Z,98268.28
2022-08-02T17:06:26.145Z,98272.59
2022-08-02T17:08:54.583Z,98268.41
2022-08-02T17:11:21.663Z,98265.22
2022-08-02T17:13:50.918Z,98271.19
2022-08-02T17:16:20.581Z,98274.66
2022-08-02T17:18:53.931Z,98270.59
2022-08-02T17:21:21.033Z,98271.06
2022-08-02T17:26:35.416Z,98269.63
2022-08-02T17:29:15.986Z,98269.53
2022-08-02T17:32:04.791Z,98266.66
2022-08-02T17:34:33.402Z,98267.72
2022-08-02T17:37:00.650Z,98272.84
2022-08-02T17:39:33.408Z,98267.16
2022-08-02T17:42:00.754Z,98275.78
2022-08-02T17:44:36.615Z,98275.25
2022-08-02T17:47:07.184Z,98274.00
2022-08-02T17:49:42.702Z,98274.78
2022-08-02T17:52:50.948Z,98266.47
2022-08-02T17:55:03.381Z,98281.06
2022-08-02T17:57:56.253Z,98280.81
2022-08-02T18:00:17.403Z,98284.06
2022-08-02T18:02:44.032Z,98277.09
2022-08-02T18:05:20.346Z,98281.56
2022-08-02T18:07:53.084Z,98283.00
2022-08-02T18:10:23.428Z,98282.59
2022-08-02T18:12:53.403Z,98284.34
2022-08-02T18:15:23.214Z,98294.09
2022-08-02T18:17:50.415Z,98285.78
2022-08-02T18:20:17.253Z,98286.75
2022-08-02T18:22:44.979Z,98283.06
2022-08-02T18:25:18.426Z,98293.38
2022-08-02T18:27:58.497Z,98287.13
2022-08-02T18:30:28.078Z,98290.06
2022-08-02T18:33:58.541Z,98287.06
2022-08-02T18:35:42.703Z,98296.00
2022-08-02T18:38:11.869Z,98292.00
2022-08-02T18:40:39.063Z,98294.66
2022-08-02T18:43:07.125Z,98292.13
2022-08-02T18:46:01.582Z,98286.84
2022-08-02T18:48:21.841Z,98293.94
2022-08-02T18:50:48.451Z,98298.41
2022-08-02T18:53:16.772Z,98301.63
2022-08-02T18:56:06.838Z,98304.81
2022-08-02T18:58:36.170Z,98305.25
2022-08-02T19:01:05.377Z,98303.41
2022-08-02T19:03:41.920Z,98307.81
2022-08-02T19:06:19.851Z,98300.63
2022-08-02T19:09:05.422Z,98312.22
2022-08-02T19:11:37.564Z,98308.03
2022-08-02T19:14:04.980Z,98312.13
2022-08-02T19:16:36.668Z,98309.59
2022-08-02T19:19:07.274Z,98312.56
2022-08-02T19:22:16.339Z,98319.59
2022-08-02T19:24:20.467Z,98319.94
2022-08-02T19:26:52.057Z,98323.94
2022-08-02T19:32:40.374Z,98330.03
2022-08-02T19:34:53.740Z,98331.09
2022-08-02T19:37:20.689Z,98329.28
2022-08-02T19:39:47.697Z,98338.78
2022-08-02T19:42:14.892Z,98334.75
2022-08-02T19:44:44.973Z,98343.75
2022-08-02T19:47:12.441Z,98338.97
2022-08-02T19:49:45.549Z,98336.97
2022-08-02T19:52:20.888Z,98340.44
2022-08-02T19:54:55.847Z,98344.63
2022-08-02T19:57:23.582Z,98342.72
2022-08-02T19:59:52.087Z,98337.72
2022-08-02T20:02:19.197Z,98355.78
2022-08-02T20:04:50.366Z,98345.00
2022-08-02T20:07:52.225Z,98347.19
2022-08-02T20:10:11.336Z,98344.56
2022-08-02T20:12:38.940Z,98354.69
2022-08-02T20:15:14.671Z,98345.03
2022-08-02T20:17:47.563Z,98346.66
2022-08-02T20:20:18.700Z,98342.22
2022-08-02T20:23:32.448Z,98345.22
2022-08-02T20:25:51.236Z,98338.75
2022-08-02T20:28:24.872Z,98333.97
2022-08-02T20:30:51.482Z,98341.25
2022-08-02T20:33:23.239Z,98345.41
2022-08-02T20:35:53.278Z,98340.59
2022-08-02T20:38:20.388Z,98337.75
2022-08-02T20:40:51.658Z,98336.53
2022-08-02T20:43:18.088Z,98338.63
2022-08-02T20:45:45.793Z,98344.97
2022-08-02T20:48:12.574Z,98333.16
2022-08-02T20:50:49.539Z,98332.41
2022-08-02T20:53:23.926Z,98336.22
2022-08-02T20:55:55.019Z,98334.75
2022-08-02T20:58:26.928Z,98339.38
2022-08-02T21:00:56.652Z,98344.00
2022-08-02T21:03:23.340Z,98344.25
2022-08-02T21:05:55.976Z,98335.84
2022-08-02T21:08:25.608Z,98345.00
2022-08-02T21:10:53.396Z,98341.88
2022-08-02T21:13:26.110Z,98341.38
2022-08-02T21:15:55.255Z,98342.22
2022-08-02T21:18:38.711Z,98334.69
2022-08-02T21:21:08.699Z,98336.91
2022-08-02T21:23:36.346Z,98341.44
2022-08-02T21:26:03.911Z,98342.50
2022-08-02T21:28:35.069Z,98341.66
2022-08-02T21:31:19.900Z,98331.94
2022-08-02T21:33:57.391Z,98336.34
2022-08-02T21:36:31.806Z,98336.78
2022-08-02T21:39:04.911Z,98339.63
2022-08-02T21:41:39.625Z,98338.16
2022-08-02T21:44:12.591Z,98339.22
2022-08-02T21:46:39.143Z,98339.53
2022-08-02T21:49:41.010Z,98341.59
2022-08-02T21:51:55.732Z,98342.78
2022-08-02T21:54:22.667Z,98334.50
2022-08-02T21:56:52.782Z,98336.69
2022-08-02T21:59:26.794Z,98334.41
2022-08-02T22:01:57.022Z,98338.38
2022-08-02T22:04:26.832Z,98334.34
2022-08-02T22:06:54.839Z,98335.59
2022-08-02T22:09:43.543Z,98335.81
2022-08-02T22:12:16.965Z,98335.97
2022-08-02T22:14:49.640Z,98337.25
2022-08-02T22:17:20.192Z,98337.56
2022-08-02T22:19:56.767Z,98335.34
2022-08-02T22:22:28.213Z,98340.69
2022-08-02T22:24:57.057Z,98335.78
2022-08-02T22:28:13.349Z,98337.66
2022-08-02T22:30:11.325Z,98340.69
2022-08-02T22:32:59.650Z,98339.22
2022-08-02T22:35:26.489Z,98346.53
2022-08-02T22:38:16.933Z,98343.47
2022-08-02T22:40:41.933Z,98344.91
2022-08-02T22:43:11.308Z,98341.03
2022-08-02T22:45:39.581Z,98345.69
2022-08-02T22:48:06.691Z,98351.03
2022-08-02T22:50:33.933Z,98357.50
2022-08-02T22:53:02.868Z,98358.66
2022-08-02T22:55:32.642Z,98358.00
2022-08-02T22:57:59.304Z,98358.41
2022-08-02T22:58:48.175Z,98326.78
2022-08-02T22:58:49.679Z,98265.72
2022-08-02T23:00:26.520Z,98358.50
2022-08-02T23:02:53.129Z,98349.91
2022-08-02T23:05:20.863Z,98355.41
2022-08-02T23:07:47.538Z,98352.06
2022-08-02T23:10:14.236Z,98360.75
2022-08-02T23:12:40.831Z,98353.22
2022-08-02T23:15:07.980Z,98349.00
2022-08-02T23:17:53.198Z,98343.25
2022-08-02T23:20:19.986Z,98349.41
2022-08-02T23:22:46.495Z,98341.66
2022-08-02T23:25:14.429Z,98350.44
2022-08-02T23:27:50.690Z,98351.66
2022-08-02T23:30:18.206Z,98350.19
2022-08-02T23:32:44.852Z,98357.25
2022-08-02T23:35:16.722Z,98358.38
2022-08-02T23:37:59.267Z,98357.81
2022-08-02T23:40:39.790Z,98360.63
2022-08-02T23:43:14.194Z,98360.06
2022-08-02T23:45:46.077Z,98368.84
2022-08-02T23:48:12.887Z,98364.53
2022-08-02T23:50:39.628Z,98355.78
2022-08-02T23:53:06.235Z,98362.03
2022-08-02T23:55:33.132Z,98358.22
2022-08-02T23:57:59.700Z,98362.88
